Time,TemperatureF,DewpointF,PressureIn,WindDirection,WindDirectionDegrees,WindSpeedMPH,WindSpeedGustMPH,Humidity,HourlyPrecipIn,Conditions,Clouds,dailyrainin,SoftwareType,DateUTC
2013-10-08 00:10:00,55.5,45.0,30.03,NW,319,2.0,7.0,68,0.00,,,0.00,weatherlink.com 1.10,2013-10-08 04:10:00,
2013-10-08 00:25:00,54.8,45.0,30.03,NNW,333,0.0,4.0,70,0.00,,,0.00,weatherlink.com 1.10,2013-10-08 04:25:00,
2013-10-08 00:40:00,53.4,46.0,30.04,NNW,327,0.0,3.0,75,0.00,,,0.00,weatherlink.com 1.10,2013-10-08 04:40:00,
2013-10-08 00:55:00,52.6,45.0,30.03,NW,320,2.0,4.0,75,0.00,,,0.00,weatherlink.com 1.10,2013-10-08 04:55:00,
2013-10-08 01:10:00,53.0,45.0,30.04,NW,312,0.0,6.0,74,0.00,,,0.00,weatherlink.com 1.10,2013-10-08 05:10:00,
2013-10-08 01:25:00,52.8,45.0,30.03,NW,310,2.0,5.0,74,0.00,,,0.00,weatherlink.com 1.10,2013-10-08 05:25:00,
2013-10-08 01:40:00,53.0,45.0,30.04,NW,317,2.0,6.0,73,0.00,,,0.00,weatherlink.com 1.10,2013-10-08 05:40:00,
2013-10-08 01:55:00,53.0,45.0,30.05,NNW,344,0.0,3.0,73,0.00,,,0.00,weatherlink.com 1.10,2013-10-08 05:55:00,
2013-10-08 02:10:00,51.8,45.0,30.06,NNW,344,0.0,0.0,77,0.00,,,0.00,weatherlink.com 1.10,2013-10-08 06:10:00,
2013-10-08 02:25:00,50.3,45.0,30.06,NW,326,0.0,1.0,82,0.00,,,0.00,weatherlink.com 1.10,2013-10-08 06:25:00,
2013-10-08 02:40:00,49.6,44.0,30.06,NW,314,0.0,3.0,81,0.00,,,0.00,weatherlink.com 1.10,2013-10-08 06:40:00,
2013-10-08 02:55:00,49.1,45.0,30.07,NW,314,0.0,0.0,85,0.00,,,0.00,weatherlink.com 1.10,2013-10-08 06:55:00,
2013-10-08 03:10:00,48.1,44.0,30.07,NW,314,0.0,0.0,86,0.00,,,0.00,weatherlink.com 1.10,2013-10-08 07:10:00,
2013-10-08 03:25:00,47.0,44.0,30.07,NW,314,2.0,2.0,88,0.00,,,0.00,weatherlink.com 1.10,2013-10-08 07:25:00,
2013-10-08 03:40:00,46.5,44.0,30.08,NW,314,0.0,0.0,90,0.00,,,0.00,weatherlink.com 1.10,2013-10-08 07:40:00,
2013-10-08 03:55:00,45.9,44.0,30.08,NW,314,0.0,0.0,91,0.00,,,0.00,weatherlink.com 1.10,2013-10-08 07:55:00,
2013-10-08 04:10:00,45.3,43.0,30.09,NW,314,0.0,0.0,91,0.00,,,0.00,weatherlink.com 1.10,2013-10-08 08:10:00,
2013-10-08 04:25:00,44.8,43.0,30.10,NW,314,0.0,1.0,92,0.00,,,0.00,weatherlink.com 1.10,2013-10-08 08:25:00,
2013-10-08 04:41:00,44.4,43.0,30.11,NW,314,0.0,0.0,93,0.00,,,0.00,weatherlink.com 1.10,2013-10-08 08:41:00,
2013-10-08 04:56:00,44.2,43.0,30.11,NW,314,0.0,2.0,94,0.00,,,0.00,weatherlink.com 1.10,2013-10-08 08:56:00,
2013-10-08 05:11:00,44.1,43.0,30.13,NW,305,0.0,2.0,94,0.00,,,0.00,weatherlink.com 1.10,2013-10-08 09:11:00,
2013-10-08 05:26:00,44.0,43.0,30.13,NW,305,0.0,2.0,95,0.00,,,0.00,weatherlink.com 1.10,2013-10-08 09:26:00,
2013-10-08 05:41:00,44.2,43.0,30.14,SE,129,2.0,4.0,95,0.00,,,0.00,weatherlink.com 1.10,2013-10-08 09:41:00,
2013-10-08 05:56:00,44.1,43.0,30.14,South,175,0.0,0.0,95,0.00,,,0.00,weatherlink.com 1.10,2013-10-08 09:56:00,
2013-10-08 06:11:00,43.8,43.0,30.15,SE,142,0.0,3.0,95,0.00,,,0.00,weatherlink.com 1.10,2013-10-08 10:11:00,
2013-10-08 06:26:00,43.6,42.0,30.16,SE,144,0.0,0.0,95,0.00,,,0.00,weatherlink.com 1.10,2013-10-08 10:26:00,
2013-10-08 06:41:00,43.3,42.0,30.17,South,170,0.0,1.0,95,0.00,,,0.00,weatherlink.com 1.10,2013-10-08 10:41:00,
2013-10-08 06:56:00,42.9,42.0,30.18,ESE,122,0.0,0.0,95,0.00,,,0.00,weatherlink.com 1.10,2013-10-08 10:56:00,
2013-10-08 07:11:00,42.7,42.0,30.18,North,352,0.0,1.0,96,0.00,,,0.00,weatherlink.com 1.10,2013-10-08 11:11:00,
2013-10-08 07:26:00,42.7,42.0,30.19,ESE,116,0.0,0.0,96,0.00,,,0.00,weatherlink.com 1.10,2013-10-08 11:26:00,
2013-10-08 07:41:00,42.8,42.0,30.20,ESE,116,0.0,1.0,96,0.00,,,0.00,weatherlink.com 1.10,2013-10-08 11:41:00,
2013-10-08 07:56:00,42.9,42.0,30.21,ESE,116,0.0,1.0,97,0.00,,,0.00,weatherlink.com 1.10,2013-10-08 11:56:00,
2013-10-08 08:11:00,43.4,43.0,30.22,ESE,116,0.0,1.0,97,0.00,,,0.00,weatherlink.com 1.10,2013-10-08 12:11:00,
2013-10-08 08:26:00,46.1,45.0,30.23,ESE,116,2.0,2.0,97,0.00,,,0.00,weatherlink.com 1.10,2013-10-08 12:26:00,
2013-10-08 08:41:00,49.4,48.0,30.23,ESE,116,0.0,1.0,93,0.00,,,0.00,weatherlink.com 1.10,2013-10-08 12:41:00,
2013-10-08 08:56:00,52.0,48.0,30.23,NNW,329,2.0,3.0,86,0.00,,,0.00,weatherlink.com 1.10,2013-10-08 12:56:00,
2013-10-08 09:11:00,54.3,48.0,30.24,NW,325,0.0,3.0,78,0.00,,,0.00,weatherlink.com 1.10,2013-10-08 13:11:00,
2013-10-08 09:26:00,55.4,48.0,30.24,North,356,0.0,3.0,76,0.00,,,0.00,weatherlink.com 1.10,2013-10-08 13:26:00,
2013-10-08 09:41:00,56.8,48.0,30.25,North,355,0.0,4.0,73,0.00,,,0.00,weatherlink.com 1.10,2013-10-08 13:41:00,
2013-10-08 09:56:00,57.5,49.0,30.24,North,352,1.0,4.0,72,0.00,,,0.00,weatherlink.com 1.10,2013-10-08 13:56:00,
2013-10-08 10:12:00,58.4,48.0,30.25,NNW,339,1.0,5.0,69,0.00,,,0.00,weatherlink.com 1.10,2013-10-08 14:12:00,
2013-10-08 10:27:00,60.2,48.0,30.25,North,360,0.0,4.0,65,0.00,,,0.00,weatherlink.com 1.10,2013-10-08 14:27:00,
2013-10-08 10:42:00,61.3,48.0,30.25,NE,35,5.0,9.0,62,0.00,,,0.00,weatherlink.com 1.10,2013-10-08 14:42:00,
2013-10-08 10:57:00,61.7,48.0,30.25,East,88,3.0,8.0,61,0.00,,,0.00,weatherlink.com 1.10,2013-10-08 14:57:00,
2013-10-08 11:12:00,62.4,48.0,30.25,NE,34,2.0,5.0,60,0.00,,,0.00,weatherlink.com 1.10,2013-10-08 15:12:00,
2013-10-08 11:27:00,62.4,48.0,30.24,NNE,29,1.0,7.0,59,0.00,,,0.00,weatherlink.com 1.10,2013-10-08 15:27:00,
2013-10-08 11:42:00,63.2,47.0,30.25,NNW,338,1.0,9.0,55,0.00,,,0.00,weatherlink.com 1.10,2013-10-08 15:42:00,
2013-10-08 11:57:00,63.3,47.0,30.24,North,10,0.0,10.0,56,0.00,,,0.00,weatherlink.com 1.10,2013-10-08 15:57:00,
2013-10-08 12:12:00,64.1,47.0,30.23,East,80,6.0,12.0,54,0.00,,,0.00,weatherlink.com 1.10,2013-10-08 16:12:00,
2013-10-08 12:27:00,64.4,48.0,30.23,North,1,0.0,7.0,56,0.00,,,0.00,weatherlink.com 1.10,2013-10-08 16:27:00,
2013-10-08 12:42:00,65.0,48.0,30.23,North,11,3.0,8.0,55,0.00,,,0.00,weatherlink.com 1.10,2013-10-08 16:42:00,
2013-10-08 12:57:00,64.3,46.0,30.23,North,6,6.0,8.0,52,0.00,,,0.00,weatherlink.com 1.10,2013-10-08 16:57:00,
2013-10-08 13:12:00,65.4,47.0,30.23,NNW,333,1.0,12.0,52,0.00,,,0.00,weatherlink.com 1.10,2013-10-08 17:12:00,
2013-10-08 13:27:00,65.0,47.0,30.22,North,351,4.0,7.0,52,0.00,,,0.00,weatherlink.com 1.10,2013-10-08 17:27:00,
2013-10-08 13:42:00,64.9,47.0,30.21,NNW,331,2.0,6.0,53,0.00,,,0.00,weatherlink.com 1.10,2013-10-08 17:42:00,
2013-10-08 13:57:00,65.8,46.0,30.21,NNE,25,2.0,8.0,50,0.00,,,0.00,weatherlink.com 1.10,2013-10-08 17:57:00,
2013-10-08 14:12:00,66.8,47.0,30.20,NNE,23,4.0,10.0,49,0.00,,,0.00,weatherlink.com 1.10,2013-10-08 18:12:00,
2013-10-08 14:27:00,66.3,46.0,30.19,NNE,26,6.0,7.0,49,0.00,,,0.00,weatherlink.com 1.10,2013-10-08 18:27:00,
2013-10-08 14:42:00,66.7,46.0,30.18,NNW,340,1.0,9.0,47,0.00,,,0.00,weatherlink.com 1.10,2013-10-08 18:42:00,
2013-10-08 14:57:00,67.8,46.0,30.18,NNE,19,3.0,10.0,46,0.00,,,0.00,weatherlink.com 1.10,2013-10-08 18:57:00,
2013-10-08 15:12:00,67.4,46.0,30.19,NNE,31,4.0,9.0,46,0.00,,,0.00,weatherlink.com 1.10,2013-10-08 19:12:00,
2013-10-08 15:27:00,66.7,44.0,30.20,NNW,348,0.0,10.0,44,0.00,,,0.00,weatherlink.com 1.10,2013-10-08 19:27:00,
2013-10-08 15:42:00,67.7,45.0,30.18,NE,35,4.0,7.0,45,0.00,,,0.00,weatherlink.com 1.10,2013-10-08 19:42:00,
2013-10-08 15:57:00,67.8,44.0,30.19,North,352,5.0,8.0,43,0.00,,,0.00,weatherlink.com 1.10,2013-10-08 19:57:00,
2013-10-08 16:12:00,68.0,45.0,30.19,NW,314,4.0,8.0,44,0.00,,,0.00,weatherlink.com 1.10,2013-10-08 20:12:00,
2013-10-08 16:27:00,68.2,45.0,30.18,East,81,0.0,10.0,44,0.00,,,0.00,weatherlink.com 1.10,2013-10-08 20:27:00,
2013-10-08 16:42:00,66.6,46.0,30.18,East,86,3.0,10.0,47,0.00,,,0.00,weatherlink.com 1.10,2013-10-08 20:42:00,
2013-10-08 16:57:00,66.4,45.0,30.19,NNE,30,2.0,8.0,46,0.00,,,0.00,weatherlink.com 1.10,2013-10-08 20:57:00,
2013-10-08 17:12:00,66.5,45.0,30.19,NNE,14,2.0,6.0,46,0.00,,,0.00,weatherlink.com 1.10,2013-10-08 21:12:00,
2013-10-08 17:27:00,66.3,45.0,30.19,NE,36,1.0,5.0,47,0.00,,,0.00,weatherlink.com 1.10,2013-10-08 21:27:00,
2013-10-08 17:42:00,66.0,46.0,30.19,NNE,33,0.0,6.0,48,0.00,,,0.00,weatherlink.com 1.10,2013-10-08 21:42:00,
2013-10-08 17:57:00,65.4,44.0,30.19,North,4,3.0,5.0,47,0.00,,,0.00,weatherlink.com 1.10,2013-10-08 21:57:00,
2013-10-08 18:12:00,64.8,44.0,30.20,NNE,12,0.0,6.0,48,0.00,,,0.00,weatherlink.com 1.10,2013-10-08 22:12:00,
2013-10-08 18:27:00,64.0,45.0,30.20,NNE,19,0.0,3.0,50,0.00,,,0.00,weatherlink.com 1.10,2013-10-08 22:27:00,
2013-10-08 18:42:00,62.9,45.0,30.20,NNE,17,0.0,2.0,53,0.00,,,0.00,weatherlink.com 1.10,2013-10-08 22:42:00,
2013-10-08 18:57:00,61.7,47.0,30.20,NNE,17,0.0,0.0,58,0.00,,,0.00,weatherlink.com 1.10,2013-10-08 22:57:00,
2013-10-08 19:12:00,59.8,47.0,30.20,NNE,17,0.0,0.0,63,0.00,,,0.00,weatherlink.com 1.10,2013-10-08 23:12:00,
2013-10-08 19:27:00,57.7,48.0,30.21,NNE,17,0.0,0.0,69,0.00,,,0.00,weatherlink.com 1.10,2013-10-08 23:27:00,
2013-10-08 19:42:00,55.8,47.0,30.21,NE,55,0.0,0.0,71,0.00,,,0.00,weatherlink.com 1.10,2013-10-08 23:42:00,
2013-10-08 19:57:00,54.9,47.0,30.22,NE,55,0.0,0.0,76,0.00,,,0.00,weatherlink.com 1.10,2013-10-08 23:57:00,
2013-10-08 20:12:00,54.0,47.0,30.22,NE,55,0.0,0.0,78,0.00,,,0.00,weatherlink.com 1.10,2013-10-09 00:12:00,
2013-10-08 20:28:00,53.2,47.0,30.22,NE,55,0.0,0.0,79,0.00,,,0.00,weatherlink.com 1.10,2013-10-09 00:28:00,
2013-10-08 20:43:00,52.4,47.0,30.23,NE,55,0.0,0.0,82,0.00,,,0.00,weatherlink.com 1.10,2013-10-09 00:43:00,
2013-10-08 20:58:00,51.7,47.0,30.23,NE,55,0.0,0.0,83,0.00,,,0.00,weatherlink.com 1.10,2013-10-09 00:58:00,
2013-10-08 21:14:00,51.1,47.0,30.24,NE,55,0.0,0.0,85,0.00,,,0.00,weatherlink.com 1.10,2013-10-09 01:14:00,
2013-10-08 21:28:00,50.7,47.0,30.24,NE,55,0.0,0.0,86,0.00,,,0.00,weatherlink.com 1.10,2013-10-09 01:28:00,
2013-10-08 21:43:00,50.3,47.0,30.24,NE,55,0.0,0.0,87,0.00,,,0.00,weatherlink.com 1.10,2013-10-09 01:43:00,
2013-10-08 21:58:00,50.0,47.0,30.24,NE,55,0.0,0.0,88,0.00,,,0.00,weatherlink.com 1.10,2013-10-09 01:58:00,
2013-10-08 22:13:00,49.7,47.0,30.24,NE,55,0.0,0.0,89,0.00,,,0.00,weatherlink.com 1.10,2013-10-09 02:13:00,
2013-10-08 22:28:00,49.3,46.0,30.24,NE,55,0.0,0.0,89,0.00,,,0.00,weatherlink.com 1.10,2013-10-09 02:28:00,
2013-10-08 22:43:00,48.9,46.0,30.25,NE,55,0.0,0.0,90,0.00,,,0.00,weatherlink.com 1.10,2013-10-09 02:43:00,
2013-10-08 22:58:00,48.7,46.0,30.25,NE,55,0.0,0.0,91,0.00,,,0.00,weatherlink.com 1.10,2013-10-09 02:58:00,
2013-10-08 23:13:00,48.4,46.0,30.25,NE,55,0.0,0.0,91,0.00,,,0.00,weatherlink.com 1.10,2013-10-09 03:13:00,
2013-10-08 23:28:00,48.1,46.0,30.25,NE,54,0.0,2.0,92,0.00,,,0.00,weatherlink.com 1.10,2013-10-09 03:28:00,
2013-10-08 23:43:00,47.8,46.0,30.25,NE,54,0.0,0.0,92,0.00,,,0.00,weatherlink.com 1.10,2013-10-09 03:43:00,
2013-10-08 23:58:00,47.6,45.0,30.25,NE,54,0.0,0.0,92,0.00,,,0.00,weatherlink.com 1.10,2013-10-09 03:58:00,